Time;durP1;ratioP1;P1;durP2;ratioP2;P2;SDS_P1;SDS_P2;PMS_P1;PMS_P2;Temp;Humidity;BMP_temperature;BMP_pressure;BME280_temperature;BME280_humidity;BME280_pressure;Samples;Min_cycle;Max_cycle;Signal;HPM_P1;HPM_P2
2023/02/12 00:00:14;;;;;;;30.80;19.70;;;;;;;0.81;71.07;101079.45;106167;1251;73044;-87
2023/02/12 00:02:43;;;;;;;30.40;17.70;;;;;;;0.81;71.10;101072.04;106220;1256;64936;-88
2023/02/12 00:05:12;;;;;;;30.70;17.80;;;;;;;0.82;70.96;101070.13;106357;1251;73849;-84
2023/02/12 00:07:41;;;;;;;27.20;17.20;;;;;;;0.82;70.90;101061.02;107747;1251;59579;-86
2023/02/12 00:10:12;;;;;;;35.70;20.70;;;;;;;0.83;70.59;101056.34;108068;1251;60284;-85
2023/02/12 00:12:42;;;;;;;28.00;17.20;;;;;;;0.86;70.62;101051.33;107098;1251;72952;-89
2023/02/12 00:18:22;;;;;;;35.60;18.80;;;;;;;0.87;70.24;101041.67;106031;1261;73739;-87
2023/02/12 00:20:52;;;;;;;33.20;17.30;;;;;;;0.85;70.23;101039.46;105749;1259;59742;-89
2023/02/12 00:23:23;;;;;;;29.40;18.30;;;;;;;0.81;69.89;101037.79;105958;1262;61144;-88
2023/02/12 00:25:51;;;;;;;28.10;17.00;;;;;;;0.78;69.79;101036.80;106220;1262;72705;-89
2023/02/12 00:28:21;;;;;;;31.20;18.10;;;;;;;0.75;69.57;101032.70;106262;1262;65295;-89
2023/02/12 00:30:50;;;;;;;27.70;17.40;;;;;;;0.73;69.52;101026.70;107211;1258;72655;-87
2023/02/12 00:33:20;;;;;;;24.20;14.90;;;;;;;0.73;69.33;101019.83;106554;1259;61190;-89
2023/02/12 00:35:56;;;;;;;23.00;14.30;;;;;;;0.73;69.18;101017.58;106774;1257;60321;-89
2023/02/12 00:38:25;;;;;;;29.10;14.60;;;;;;;0.74;69.02;101016.89;107564;1257;74025;-88
2023/02/12 00:40:54;;;;;;;25.40;15.80;;;;;;;0.75;69.06;101012.73;106291;1258;64867;-87
2023/02/12 00:43:26;;;;;;;28.90;17.80;;;;;;;0.77;68.68;101008.91;106751;1259;72653;-86
2023/02/12 00:45:55;;;;;;;27.50;14.80;;;;;;;0.80;68.77;101009.05;106154;1261;60239;-87
2023/02/12 00:48:25;;;;;;;25.00;14.10;;;;;;;0.81;68.51;101006.98;106276;1258;61332;-88
2023/02/12 00:50:54;;;;;;;24.20;13.70;;;;;;;0.81;68.55;100999.92;106142;1261;72306;-88
2023/02/12 00:53:22;;;;;;;26.20;14.60;;;;;;;0.80;68.27;100998.23;107212;1257;63693;-84
2023/02/12 00:55:50;;;;;;;26.40;14.50;;;;;;;0.77;68.22;101000.33;106587;1261;72361;-87
2023/02/12 00:58:20;;;;;;;20.60;13.90;;;;;;;0.74;68.28;100998.30;106412;1262;60675;-88
2023/02/12 01:00:49;;;;;;;26.20;14.60;;;;;;;0.71;68.16;101001.45;106078;1259;62052;-87
2023/02/12 01:03:17;;;;;;;27.50;14.30;;;;;;;0.69;68.26;101001.48;105934;1257;73240;-87
2023/02/12 01:05:46;;;;;;;24.00;14.20;;;;;;;0.66;68.15;100996.52;106685;1261;64620;-88
2023/02/12 01:08:15;;;;;;;24.10;14.40;;;;;;;0.64;68.13;100995.86;105970;1261;74255;-88
2023/02/12 01:10:44;;;;;;;25.20;13.70;;;;;;;0.64;68.14;100988.63;105928;1271;60869;-88
2023/02/12 01:13:13;;;;;;;22.00;13.00;;;;;;;0.65;68.17;100994.30;105725;1257;61251;-87
2023/02/12 01:15:42;;;;;;;17.80;12.20;;;;;;;0.67;68.00;100993.75;105894;1258;73173;-88
2023/02/12 01:18:11;;;;;;;22.00;13.50;;;;;;;0.69;68.05;100986.83;105971;1261;64694;-88
2023/02/12 01:20:40;;;;;;;21.90;12.80;;;;;;;0.72;67.79;100992.83;106069;1262;73678;-87
2023/02/12 01:23:09;;;;;;;22.10;13.60;;;;;;;0.73;67.59;100998.31;106631;1261;59754;-87
2023/02/12 01:25:41;;;;;;;21.30;12.30;;;;;;;0.73;67.53;100987.45;106226;1257;60773;-88
2023/02/12 01:28:27;;;;;;;22.20;13.60;;;;;;;0.74;67.62;100981.79;109137;1258;73641;-87
2023/02/12 01:30:58;;;;;;;23.40;13.80;;;;;;;0.73;67.66;100982.83;109129;1258;63893;-87
2023/02/12 01:33:27;;;;;;;25.90;14.50;;;;;;;0.70;67.62;100972.03;109108;1258;73626;-87
2023/02/12 01:35:55;;;;;;;22.00;13.30;;;;;;;0.66;67.56;100971.24;109100;1258;60573;-85
2023/02/12 01:38:24;;;;;;;22.60;13.00;;;;;;;0.62;67.54;100968.52;109273;1258;61060;-87
2023/02/12 01:40:52;;;;;;;24.00;12.80;;;;;;;0.59;67.75;100962.55;109217;1258;72973;-86
2023/02/12 01:43:24;;;;;;;21.40;13.80;;;;;;;0.56;67.71;100970.50;109155;1259;64807;-86
2023/02/12 01:45:52;;;;;;;20.30;11.90;;;;;;;0.53;67.82;100969.33;109143;1258;72309;-87
2023/02/12 01:48:22;;;;;;;22.30;13.50;;;;;;;0.50;67.79;100961.98;109052;1258;59229;-87
2023/02/12 01:50:50;;;;;;;18.30;12.40;;;;;;;0.48;67.71;100961.83;109127;1258;60369;-87
2023/02/12 01:53:19;;;;;;;16.70;10.70;;;;;;;0.48;67.63;100957.52;109097;1259;74148;-87
2023/02/12 01:55:50;;;;;;;19.20;10.90;;;;;;;0.50;67.59;100953.04;109041;1259;64026;-88
2023/02/12 01:58:19;;;;;;;20.00;12.20;;;;;;;0.49;67.51;100957.17;109101;1259;72379;-87
2023/02/12 02:00:48;;;;;;;20.40;11.90;;;;;;;0.50;67.50;100954.23;109074;1258;59625;-86
2023/02/12 02:03:17;;;;;;;23.00;11.90;;;;;;;0.52;67.36;100949.91;109133;1258;61544;-88
2023/02/12 02:05:55;;;;;;;20.20;13.20;;;;;;;0.53;67.27;100944.21;109166;1257;74830;-86
2023/02/12 02:17:14;;;;;;;19.60;11.90;;;;;;;0.46;67.10;100936.23;105842;1264;61338;-88
2023/02/12 02:19:51;;;;;;;19.80;11.70;;;;;;;0.42;67.43;100929.22;107588;1264;72250;-88
2023/02/12 02:22:40;;;;;;;19.60;12.20;;;;;;;0.38;67.57;100928.59;105955;1264;63817;-86
2023/02/12 02:25:35;;;;;;;22.10;13.00;;;;;;;0.33;67.63;100922.13;105208;1264;809933;-86
2023/02/12 02:28:41;;;;;;;21.30;12.30;;;;;;;0.28;67.98;100916.00;105806;1264;62022;-87
2023/02/12 02:31:12;;;;;;;20.60;11.70;;;;;;;0.26;68.05;100912.40;106182;1262;61116;-85
2023/02/12 02:34:23;;;;;;;20.10;11.40;;;;;;;0.25;68.05;100917.07;106496;1263;71952;-88
2023/02/12 02:37:27;;;;;;;19.80;13.00;;;;;;;0.26;68.38;100919.80;105562;1266;63701;-87
2023/02/12 02:40:02;;;;;;;21.00;12.60;;;;;;;0.28;68.36;100919.77;105854;1266;73941;-85
2023/02/12 02:42:33;;;;;;;25.40;14.10;;;;;;;0.30;68.22;100925.59;105625;1269;60504;-86
2023/02/12 02:45:15;;;;;;;21.60;13.60;;;;;;;0.32;68.15;100921.80;105938;1266;60222;-86
2023/02/12 02:47:55;;;;;;;22.10;12.70;;;;;;;0.31;68.27;100919.73;105361;1271;74250;-88
2023/02/12 02:50:23;;;;;;;24.70;13.30;;;;;;;0.27;68.32;100921.34;105445;1269;63755;-88
2023/02/12 02:52:55;;;;;;;23.00;12.80;;;;;;;0.25;68.44;100920.16;105464;1267;73589;-86
2023/02/12 02:55:24;;;;;;;20.20;12.90;;;;;;;0.23;68.54;100910.56;105368;1266;59797;-87
2023/02/12 02:57:57;;;;;;;21.50;14.10;;;;;;;0.19;68.56;100914.05;105592;1265;60216;-87
2023/02/12 03:00:32;;;;;;;21.40;13.20;;;;;;;0.14;68.77;100914.79;107055;1266;74076;-88
2023/02/12 03:03:10;;;;;;;24.10;12.90;;;;;;;0.12;68.84;100920.66;106713;1266;63896;-87
2023/02/12 03:05:40;;;;;;;37.50;19.70;;;;;;;0.12;68.93;100926.00;106834;1266;72767;-88
2023/02/12 03:08:11;;;;;;;23.90;14.90;;;;;;;0.12;69.20;100928.38;106377;1265;62198;-86
2023/02/12 03:10:45;;;;;;;20.00;12.60;;;;;;;0.15;69.22;100930.94;106601;1266;61116;-86
2023/02/12 03:13:27;;;;;;;20.60;13.10;;;;;;;0.19;69.30;100934.68;107144;1260;73888;-86
2023/02/12 03:16:22;;;;;;;22.70;14.00;;;;;;;0.24;69.41;100933.59;106030;1260;63823;-86
2023/02/12 03:19:15;;;;;;;22.10;12.90;;;;;;;0.28;69.31;100933.87;106248;1259;73774;-88
2023/02/12 03:21:49;;;;;;;23.00;13.20;;;;;;;0.29;69.23;100930.94;106579;1260;60274;-87
2023/02/12 03:24:35;;;;;;;;;;;;;;;0.30;69.37;100919.58;106808;1254;61181;-86
2023/02/12 03:27:10;;;;;;;22.70;13.30;;;;;;;0.28;69.51;100913.59;107020;1252;73017;-87
2023/02/12 03:29:37;;;;;;;23.50;14.10;;;;;;;0.21;69.77;100909.89;107402;1250;63870;-85
2023/02/12 03:32:24;;;;;;;22.90;14.70;;;;;;;0.17;70.02;100907.18;106792;1250;73327;-87
2023/02/12 03:34:58;;;;;;;27.20;14.90;;;;;;;0.13;70.19;100906.55;106915;1254;60711;-86
2023/02/12 03:37:29;;;;;;;23.40;15.70;;;;;;;0.08;70.56;100907.64;106708;1251;60716;-88
2023/02/12 03:40:02;;;;;;;24.70;15.20;;;;;;;0.06;70.99;100904.39;107006;1250;73911;-86
2023/02/12 03:42:38;;;;;;;22.30;14.30;;;;;;;0.05;71.59;100907.35;106987;1254;64724;-84
2023/02/12 03:45:28;;;;;;;22.70;15.40;;;;;;;0.03;72.10;100902.89;107737;1250;72222;-85
2023/02/12 03:48:04;;;;;;;25.20;13.70;;;;;;;0.04;72.69;100905.80;107001;1250;59633;-87
2023/02/12 03:50:51;;;;;;;24.30;15.10;;;;;;;0.03;73.17;100902.55;106732;1250;60354;-86
2023/02/12 03:53:18;;;;;;;28.90;15.20;;;;;;;0.04;73.73;100901.16;106719;1250;73792;-89
2023/02/12 03:55:50;;;;;;;29.70;16.10;;;;;;;0.01;74.08;100899.98;106922;1250;64728;-87
2023/02/12 03:58:20;;;;;;;26.70;16.40;;;;;;;-0.04;74.43;100897.81;106677;1250;73570;-85
2023/02/12 04:00:47;;;;;;;27.50;17.30;;;;;;;-0.09;74.72;100903.73;107764;1250;60511;-85
2023/02/12 04:03:14;;;;;;;25.60;17.30;;;;;;;-0.13;75.29;100902.23;107151;1250;60078;-86
2023/02/12 04:05:41;;;;;;;27.50;17.10;;;;;;;-0.14;75.55;100902.75;106332;1257;74555;-87
2023/02/12 04:08:09;;;;;;;23.10;14.90;;;;;;;-0.15;76.13;100901.55;106446;1250;64208;-85
2023/02/12 04:10:48;;;;;;;27.90;16.30;;;;;;;-0.17;76.42;100903.47;106629;1250;73667;-86
2023/02/12 04:13:28;;;;;;;23.70;16.00;;;;;;;-0.19;76.93;100903.66;106682;1251;62256;-88
2023/02/12 04:16:25;;;;;;;23.80;15.70;;;;;;;-0.16;77.30;100905.19;106699;1250;59631;-87
2023/02/12 04:18:53;;;;;;;30.80;17.80;;;;;;;-0.12;77.49;100904.63;107473;1250;74108;-86
2023/02/12 04:21:39;;;;;;;22.70;16.30;;;;;;;-0.11;77.66;100913.54;106911;1256;64616;-88
2023/02/12 04:24:31;;;;;;;26.90;17.00;;;;;;;-0.12;77.71;100911.50;106777;1253;74452;-86
2023/02/12 04:27:15;;;;;;;29.30;17.60;;;;;;;-0.18;78.07;100904.00;106888;1251;59596;-84
2023/02/12 04:30:21;;;;;;;30.00;17.80;;;;;;;-0.24;78.29;100902.52;107491;1251;60216;-89
2023/02/12 04:32:58;;;;;;;25.10;18.10;;;;;;;-0.28;78.56;100904.63;106644;1250;73930;-86
2023/02/12 04:35:34;;;;;;;27.70;17.50;;;;;;;-0.28;78.92;100900.83;106382;1250;63811;-86
2023/02/12 04:38:14;;;;;;;27.00;16.60;;;;;;;-0.28;79.03;100901.34;108267;1250;73731;-87
2023/02/12 04:40:41;;;;;;;25.20;16.70;;;;;;;-0.26;79.39;100902.87;106683;1250;60841;-87
2023/02/12 04:43:08;;;;;;;25.40;17.10;;;;;;;-0.25;79.50;100904.92;106572;1250;60595;-88
2023/02/12 04:45:35;;;;;;;23.90;15.60;;;;;;;-0.22;79.50;100904.73;106464;1253;73816;-88
2023/02/12 04:48:04;;;;;;;28.00;18.00;;;;;;;-0.19;79.62;100910.20;106581;1254;63885;-90
2023/02/12 04:50:40;;;;;;;25.70;16.60;;;;;;;-0.17;79.57;100910.02;106329;1250;73814;-86
2023/02/12 04:53:08;;;;;;;24.90;16.80;;;;;;;-0.17;79.74;100910.00;107256;1250;59563;-86
2023/02/12 04:55:35;;;;;;;30.60;18.70;;;;;;;-0.18;79.66;100912.07;106698;1250;60095;-87
2023/02/12 04:58:02;;;;;;;26.50;16.80;;;;;;;-0.19;79.68;100910.71;106650;1250;73787;-86
2023/02/12 05:00:31;;;;;;;28.90;18.50;;;;;;;-0.19;79.85;100907.80;106776;1256;64665;-87
2023/02/12 05:02:57;;;;;;;27.80;17.90;;;;;;;-0.19;79.92;100910.70;106496;1250;72577;-86
2023/02/12 05:05:25;;;;;;;31.10;19.40;;;;;;;-0.17;80.02;100908.79;106826;1254;61123;-88
2023/02/12 05:09:35;;;;;;;29.80;18.40;;;;;;;-0.10;80.24;100912.50;103410;1292;612180;-85
2023/02/12 05:12:07;;;;;;;30.40;18.40;;;;;;;-0.07;80.18;100915.56;106567;1270;59335;-87
2023/02/12 05:14:35;;;;;;;27.30;19.30;;;;;;;-0.07;80.28;100921.58;105677;1263;59350;-85
2023/02/12 05:17:02;;;;;;;29.30;18.40;;;;;;;-0.08;80.40;100922.61;105581;1271;72585;-88
2023/02/12 05:19:35;;;;;;;25.50;17.50;;;;;;;-0.06;80.39;100922.26;106107;1262;65098;-88
2023/02/12 05:22:02;;;;;;;29.70;19.20;;;;;;;-0.04;80.54;100927.20;105174;1259;841934;-86
2023/02/12 05:24:29;;;;;;;26.40;16.50;;;;;;;-0.01;80.87;100929.41;106209;1256;61476;-84
2023/02/12 05:27:00;;;;;;;28.30;17.30;;;;;;;0.04;81.18;100926.77;106256;1256;61380;-87
2023/02/12 05:29:27;;;;;;;27.20;17.10;;;;;;;0.06;81.52;100928.13;106854;1256;73179;-87
2023/02/12 05:31:54;;;;;;;23.40;16.70;;;;;;;0.09;81.73;100928.43;106275;1256;64922;-88
2023/02/12 05:34:21;;;;;;;28.00;18.10;;;;;;;0.14;81.89;100928.38;106727;1256;73552;-87
2023/02/12 05:36:48;;;;;;;24.20;17.20;;;;;;;0.19;81.68;100930.38;106408;1256;60669;-87
2023/02/12 05:39:16;;;;;;;27.00;19.10;;;;;;;0.21;81.62;100934.14;106570;1256;59699;-86
2023/02/12 05:41:43;;;;;;;27.50;18.60;;;;;;;0.23;81.76;100938.42;107485;1256;73691;-87
2023/02/12 05:44:14;;;;;;;32.60;19.10;;;;;;;0.25;81.68;100940.96;106140;1256;64689;-87
2023/02/12 05:46:42;;;;;;;28.30;20.00;;;;;;;0.25;81.85;100942.34;106150;1256;71741;-87
2023/02/12 05:49:11;;;;;;;30.90;19.30;;;;;;;0.26;81.96;100946.45;106195;1256;60933;-88
2023/02/12 05:51:38;;;;;;;26.70;18.20;;;;;;;0.31;82.26;100947.58;106497;1251;61644;-89
2023/02/12 05:54:05;;;;;;;31.30;19.50;;;;;;;0.37;82.23;100946.31;107254;1255;73742;-88
2023/02/12 05:56:46;;;;;;;27.00;18.00;;;;;;;0.44;82.72;100947.26;106981;1251;65103;-87
2023/02/12 05:59:31;;;;;;;29.10;19.20;;;;;;;0.53;82.83;100949.55;106875;1251;72878;-88
2023/02/12 06:02:39;;;;;;;28.30;20.40;;;;;;;0.63;82.64;100945.80;106486;1253;59720;-87
2023/02/12 06:05:07;;;;;;;27.60;18.60;;;;;;;0.66;82.40;100948.02;106520;1251;62128;-87
2023/02/12 06:07:34;;;;;;;31.90;21.00;;;;;;;0.67;82.24;100957.28;106434;1251;74392;-89
2023/02/12 06:10:01;;;;;;;30.00;18.50;;;;;;;0.72;82.29;100959.80;106385;1251;63202;-90
2023/02/12 06:12:45;;;;;;;28.30;18.40;;;;;;;0.78;82.46;100964.52;103443;1289;601044;-87
2023/02/12 06:15:14;;;;;;;24.90;17.90;;;;;;;0.82;82.49;100962.58;105184;1269;61218;-87
2023/02/12 06:17:51;;;;;;;28.40;18.60;;;;;;;0.87;82.56;100974.36;106321;1256;61271;-88
2023/02/12 06:20:19;;;;;;;23.50;18.00;;;;;;;0.91;82.80;100964.16;106471;1256;72205;-88
2023/02/12 06:22:50;;;;;;;28.60;19.60;;;;;;;0.93;82.97;100976.17;106860;1254;63769;-87
2023/02/12 06:25:20;;;;;;;29.60;19.00;;;;;;;0.93;82.96;100991.67;105890;1253;688419;-89
2023/02/12 06:27:49;;;;;;;28.00;19.10;;;;;;;0.93;83.02;100995.96;106754;1254;60262;-87
2023/02/12 06:30:17;;;;;;;34.90;20.00;;;;;;;0.93;83.19;100990.46;107643;1253;59472;-88
2023/02/12 06:33:06;;;;;;;38.10;20.90;;;;;;;0.98;83.40;100998.83;109172;1252;71523;-87
2023/02/12 06:35:36;;;;;;;32.80;21.90;;;;;;;0.99;83.23;101000.02;109219;1253;63657;-86
2023/02/12 06:38:06;;;;;;;35.00;21.10;;;;;;;0.97;83.27;100999.02;106901;1259;71725;-89
2023/02/12 06:40:35;;;;;;;41.30;23.40;;;;;;;0.91;83.34;101003.40;106388;1256;61881;-87
2023/02/12 06:43:05;;;;;;;46.50;26.80;;;;;;;0.92;83.91;101002.02;106456;1256;60274;-90
2023/02/12 06:45:35;;;;;;;47.30;25.70;;;;;;;0.96;84.38;101002.48;106908;1254;74066;-89
2023/02/12 06:48:04;;;;;;;46.30;25.90;;;;;;;1.03;84.77;101002.72;106572;1257;64716;-88
2023/02/12 06:50:33;;;;;;;47.90;26.70;;;;;;;1.09;84.98;101004.52;106503;1254;73670;-87
2023/02/12 06:53:07;;;;;;;49.20;28.30;;;;;;;1.14;85.03;101006.69;106508;1259;59734;-87
2023/02/12 06:55:35;;;;;;;52.50;30.40;;;;;;;1.15;85.10;101012.36;106234;1253;60402;-88
2023/02/12 06:58:04;;;;;;;47.10;26.20;;;;;;;1.19;85.59;101014.53;106253;1257;74006;-87
2023/02/12 07:00:36;;;;;;;45.00;27.60;;;;;;;1.28;85.75;101010.96;106522;1253;63372;-87
2023/02/12 07:03:04;;;;;;;35.10;21.70;;;;;;;1.35;85.84;101011.72;106630;1253;73614;-87
2023/02/12 07:05:36;;;;;;;31.70;20.40;;;;;;;1.41;85.92;101015.23;107765;1253;61976;-88
2023/02/12 07:08:06;;;;;;;24.70;17.40;;;;;;;1.51;86.20;101017.15;106636;1253;61301;-85
2023/02/12 07:10:35;;;;;;;25.60;16.50;;;;;;;1.60;86.26;101015.43;106342;1254;74025;-88
2023/02/12 07:13:06;;;;;;;22.00;15.10;;;;;;;1.71;86.55;101016.11;106344;1256;63915;-89
2023/02/12 07:15:38;;;;;;;24.10;17.70;;;;;;;1.82;86.19;101023.16;106656;1254;71956;-85
2023/02/12 07:18:07;;;;;;;23.10;16.00;;;;;;;1.92;86.19;101025.25;106791;1254;59656;-86
2023/02/12 07:20:35;;;;;;;22.20;14.40;;;;;;;2.00;86.06;101026.30;106682;1253;61020;-89
2023/02/12 07:23:05;;;;;;;22.40;14.50;;;;;;;2.07;85.65;101029.27;107576;1253;74041;-87
2023/02/12 07:25:34;;;;;;;20.50;13.80;;;;;;;2.10;85.20;101027.15;106893;1257;63783;-88
2023/02/12 07:28:06;;;;;;;16.70;12.40;;;;;;;2.09;85.00;101031.31;106619;1253;71401;-88
2023/02/12 07:30:36;;;;;;;14.20;10.50;;;;;;;2.06;85.13;101036.54;106677;1253;61240;-87
2023/02/12 17:26:31;;;;;;;4.20;2.30;;;;;;;-0.62;61.87;101735.18;104537;1293;615670;-87
2023/02/12 17:29:04;;;;;;;4.40;1.60;;;;;;;-0.64;61.89;101732.44;106559;1267;60541;-88
2023/02/12 17:31:35;;;;;;;3.60;1.60;;;;;;;-0.64;61.65;101733.46;106656;1267;60048;-88
2023/02/12 17:34:03;;;;;;;4.40;2.10;;;;;;;-0.64;61.93;101736.55;106778;1267;73470;-86
2023/02/12 17:36:35;;;;;;;5.00;1.80;;;;;;;-0.64;61.83;101739.13;106877;1260;65939;-87
2023/02/12 17:39:06;;;;;;;7.60;3.30;;;;;;;-0.65;62.05;101743.93;107272;1257;624252;-87
2023/02/12 17:53:52;;;;;;;4.60;2.60;;;;;;;-0.59;63.11;101753.06;105350;1281;612816;-87
2023/02/12 17:56:24;;;;;;;4.10;1.60;;;;;;;-0.57;63.41;101754.10;106821;1266;59524;-89
2023/02/12 17:59:00;;;;;;;2.50;1.70;;;;;;;-0.55;63.37;101754.63;107304;1266;60605;-88
2023/02/12 18:01:29;;;;;;;5.70;1.60;;;;;;;-0.60;63.10;101757.87;107165;1266;72413;-88
2023/02/12 18:04:15;;;;;;;3.80;1.50;;;;;;;-0.60;62.92;101756.66;108728;1270;63489;-88
2023/02/12 18:06:44;;;;;;;3.80;1.90;;;;;;;-0.59;62.97;101765.25;108051;1269;747666;-88
2023/02/12 18:09:17;;;;;;;3.10;1.70;;;;;;;-0.57;63.02;101767.85;108647;1268;59366;-88
2023/02/12 18:11:45;;;;;;;2.80;1.20;;;;;;;-0.56;62.92;101769.03;108614;1270;60297;-88
2023/02/12 18:15:28;;;;;;;2.20;1.20;;;;;;;-0.54;62.90;101772.66;108166;1273;71359;-89
2023/02/12 18:18:02;;;;;;;4.80;1.80;;;;;;;-0.53;62.84;101777.48;108251;1273;64794;-88
2023/02/12 18:20:32;;;;;;;1.90;1.10;;;;;;;-0.52;62.72;101780.40;108779;1266;72511;-90
2023/02/12 18:23:07;;;;;;;4.10;1.80;;;;;;;-0.51;62.54;101786.42;108712;1266;59582;-88
2023/02/12 18:25:41;;;;;;;3.10;2.10;;;;;;;-0.50;62.94;101788.48;108684;1266;60909;-88
2023/02/12 18:28:10;;;;;;;4.10;1.80;;;;;;;-0.50;62.99;101791.58;108685;1266;72998;-88
2023/02/12 18:30:41;;;;;;;6.60;2.10;;;;;;;-0.50;63.71;101792.61;108699;1266;63679;-88
2023/02/12 18:33:09;;;;;;;2.20;1.80;;;;;;;-0.54;63.84;101794.30;108774;1266;72626;-89
2023/02/12 18:35:40;;;;;;;5.00;1.70;;;;;;;-0.55;64.04;101791.04;108682;1266;60504;-88
2023/02/12 18:38:10;;;;;;;7.90;2.50;;;;;;;-0.54;64.05;101797.39;108916;1259;61151;-87
2023/02/12 18:40:39;;;;;;;2.90;1.90;;;;;;;-0.50;64.00;101800.50;109151;1259;72964;-86
2023/02/12 18:43:07;;;;;;;6.30;2.00;;;;;;;-0.49;64.46;101800.67;109189;1259;64905;-89
2023/02/12 18:45:38;;;;;;;4.50;2.20;;;;;;;-0.56;64.55;101804.08;109262;1259;72172;-88
2023/02/12 18:48:08;;;;;;;4.70;2.40;;;;;;;-0.63;64.73;101805.77;109237;1259;59210;-88
2023/02/12 18:50:35;;;;;;;4.20;2.00;;;;;;;-0.69;64.97;101802.30;109274;1259;60151;-86
2023/02/12 18:53:02;;;;;;;3.30;1.40;;;;;;;-0.72;65.04;101803.31;109147;1260;74258;-88
2023/02/12 18:55:30;;;;;;;4.20;1.60;;;;;;;-0.75;65.25;101798.14;109326;1257;63709;-88
2023/02/12 18:58:00;;;;;;;5.40;1.60;;;;;;;-0.78;65.32;101797.77;109504;1256;72588;-89
2023/02/12 19:00:28;;;;;;;5.20;2.00;;;;;;;-0.81;65.41;101797.93;109392;1256;60308;-88
2023/02/12 19:02:55;;;;;;;3.10;1.90;;;;;;;-0.83;65.57;101801.02;109317;1256;60172;-87
2023/02/12 19:05:25;;;;;;;6.90;2.00;;;;;;;-0.86;65.35;101800.98;109614;1256;73128;-86
2023/02/12 19:08:10;;;;;;;4.20;1.50;;;;;;;-0.92;65.57;101802.50;108995;1263;62142;-87
2023/02/12 19:10:38;;;;;;;4.20;1.60;;;;;;;-0.98;65.40;101804.69;108961;1263;72549;-88
2023/02/12 19:13:06;;;;;;;5.00;1.70;;;;;;;-1.03;65.44;101803.45;108871;1263;59511;-89
2023/02/12 19:15:38;;;;;;;2.90;1.40;;;;;;;-1.07;65.50;101802.91;108934;1263;60293;-88
2023/02/12 19:18:05;;;;;;;2.90;1.70;;;;;;;-1.12;65.48;101803.05;108832;1263;73944;-88
2023/02/12 19:20:32;;;;;;;2.90;2.40;;;;;;;-1.18;65.56;101809.52;108832;1263;65088;-87
2023/02/12 19:22:59;;;;;;;3.90;1.60;;;;;;;-1.24;65.80;101808.97;108850;1263;73781;-87
2023/02/12 19:25:28;;;;;;;5.40;1.80;;;;;;;-1.29;65.77;101818.02;108822;1263;61452;-87
2023/02/12 19:27:57;;;;;;;3.50;1.60;;;;;;;-1.31;65.91;101823.67;108765;1263;60287;-88
2023/02/12 19:30:25;;;;;;;6.50;1.70;;;;;;;-1.30;66.00;101829.50;108933;1263;72973;-87
2023/02/12 19:32:52;;;;;;;3.40;2.00;;;;;;;-1.31;65.94;101831.23;108920;1263;63910;-87
2023/02/12 19:35:20;;;;;;;4.50;2.40;;;;;;;-1.27;66.26;101830.39;108850;1264;72476;-89
2023/02/12 19:37:49;;;;;;;6.30;3.50;;;;;;;-1.23;66.04;101832.98;108844;1264;60809;-87
2023/02/12 19:40:17;;;;;;;2.90;1.60;;;;;;;-1.19;65.94;101838.35;108970;1263;61125;-87
2023/02/12 19:42:46;;;;;;;2.50;1.50;;;;;;;-1.18;65.64;101842.47;108860;1263;73176;-89
2023/02/12 19:45:13;;;;;;;4.80;2.50;;;;;;;-1.21;65.71;101841.59;108829;1263;62634;-88
2023/02/12 19:47:40;;;;;;;3.20;2.10;;;;;;;-1.26;65.74;101850.30;108862;1263;73676;-89
2023/02/12 19:50:08;;;;;;;4.80;1.60;;;;;;;-1.27;65.51;101855.42;108838;1263;59648;-88
2023/02/12 19:52:35;;;;;;;3.30;1.60;;;;;;;-1.27;65.62;101853.20;108842;1268;60027;-89
2023/02/12 19:55:02;;;;;;;3.10;1.40;;;;;;;-1.22;65.49;101855.98;108850;1266;72991;-89
2023/02/12 19:57:30;;;;;;;2.30;1.30;;;;;;;-1.20;64.96;101861.83;108818;1263;64046;-86
2023/02/12 19:59:57;;;;;;;1.50;1.30;;;;;;;-1.20;64.58;101866.31;108923;1263;73610;-88
2023/02/12 20:02:25;;;;;;;1.90;1.10;;;;;;;-1.21;64.32;101864.74;108837;1264;59318;-86
2023/02/12 20:04:52;;;;;;;6.20;2.00;;;;;;;-1.23;64.30;101871.09;108847;1263;60861;-87
2023/02/12 20:07:19;;;;;;;6.30;3.30;;;;;;;-1.22;64.18;101869.89;108864;1264;72858;-87
2023/02/12 20:09:49;;;;;;;3.90;1.90;;;;;;;-1.19;64.27;101873.17;108881;1263;63759;-89
2023/02/12 20:12:17;;;;;;;4.30;2.00;;;;;;;-1.18;63.74;101877.13;108862;1263;73767;-88
2023/02/12 20:14:47;;;;;;;4.10;2.60;;;;;;;-1.21;63.66;101875.22;108941;1263;59273;-87
2023/02/12 20:17:14;;;;;;;5.60;2.70;;;;;;;-1.22;63.35;101881.89;108828;1264;60559;-87
2023/02/12 20:19:46;;;;;;;4.00;1.90;;;;;;;-1.22;63.09;101878.63;108884;1263;72457;-88
2023/02/12 20:22:14;;;;;;;6.20;1.80;;;;;;;-1.25;62.76;101879.81;108863;1264;63843;-88
2023/02/12 20:24:41;;;;;;;2.80;1.70;;;;;;;-1.22;62.53;101882.39;108875;1264;73208;-86
2023/02/12 20:27:09;;;;;;;4.40;1.50;;;;;;;-1.21;62.64;101881.39;108839;1263;61198;-89
2023/02/12 20:29:36;;;;;;;6.50;1.50;;;;;;;-1.20;62.38;101880.55;108839;1265;60200;-88
2023/02/12 20:32:04;;;;;;;3.20;1.80;;;;;;;-1.18;62.55;101881.08;108856;1263;74118;-88
2023/02/12 20:34:31;;;;;;;5.40;1.80;;;;;;;-1.16;62.46;101878.68;108934;1264;63903;-88
2023/02/12 20:37:16;;;;;;;4.40;2.00;;;;;;;-1.17;62.14;101883.30;108860;1264;72633;-88
2023/02/12 20:39:44;;;;;;;3.90;1.50;;;;;;;-1.19;61.94;101887.41;108905;1264;60437;-87
2023/02/12 20:42:11;;;;;;;2.70;1.60;;;;;;;-1.19;62.09;101885.36;108872;1263;61093;-86
2023/02/12 20:44:39;;;;;;;2.10;1.60;;;;;;;-1.19;62.07;101887.41;108855;1264;72941;-86
2023/02/12 20:47:06;;;;;;;4.40;1.60;;;;;;;-1.21;61.88;101888.77;108828;1263;63811;-85
2023/02/12 20:49:33;;;;;;;3.30;1.30;;;;;;;-1.24;61.43;101889.43;108866;1264;72494;-85
2023/02/12 20:52:00;;;;;;;4.80;1.50;;;;;;;-1.26;61.31;101891.14;108804;1263;60402;-87
2023/02/12 20:54:28;;;;;;;3.40;1.50;;;;;;;-1.29;61.26;101896.42;108880;1265;60223;-87
2023/02/12 20:56:57;;;;;;;2.30;1.70;;;;;;;-1.28;61.58;101896.26;108916;1265;72917;-83
2023/02/12 20:59:24;;;;;;;4.50;2.20;;;;;;;-1.28;61.50;101896.26;108856;1263;62613;-88
2023/02/12 21:04:54;;;;;;;3.90;1.40;;;;;;;-1.22;61.88;101900.27;104813;1289;612452;-87
2023/02/12 21:07:25;;;;;;;3.00;1.70;;;;;;;-1.23;62.24;101900.59;106355;1272;61714;-86
2023/02/12 21:09:54;;;;;;;6.20;1.40;;;;;;;-1.21;62.27;101898.71;106038;1263;61391;-87
2023/02/12 21:12:22;;;;;;;3.80;1.30;;;;;;;-1.21;62.20;101903.01;106106;1265;73333;-86
2023/02/12 21:14:50;;;;;;;2.30;1.30;;;;;;;-1.22;62.31;101905.73;106931;1261;64809;-87
2023/02/12 21:17:27;;;;;;;4.70;1.50;;;;;;;-1.24;62.13;101899.73;106665;1254;790435;-85
2023/02/12 21:19:56;;;;;;;7.70;1.70;;;;;;;-1.23;62.01;101907.28;107547;1254;61200;-85
2023/02/12 21:22:23;;;;;;;5.00;1.10;;;;;;;-1.25;62.04;101910.17;107003;1254;60233;-87
2023/02/12 21:24:51;;;;;;;4.20;1.80;;;;;;;-1.27;61.73;101913.42;106788;1259;73213;-87
2023/02/12 21:27:19;;;;;;;7.20;1.30;;;;;;;-1.27;61.52;101914.46;107452;1253;63952;-86
2023/02/12 21:29:46;;;;;;;2.50;1.10;;;;;;;-1.29;61.30;101914.77;106983;1256;72459;-87
2023/02/12 21:32:13;;;;;;;2.70;0.90;;;;;;;-1.33;61.03;101916.27;107284;1254;61329;-87
2023/02/12 21:34:41;;;;;;;1.10;0.70;;;;;;;-1.39;60.75;101923.93;106743;1254;59726;-85
2023/02/12 21:37:08;;;;;;;5.30;1.30;;;;;;;-1.45;60.30;101921.30;107098;1254;72431;-85
2023/02/12 21:39:36;;;;;;;3.30;0.90;;;;;;;-1.50;59.84;101924.67;107290;1254;64742;-83
2023/02/12 21:42:04;;;;;;;3.50;0.90;;;;;;;-1.56;59.42;101928.37;107689;1255;72717;-86
2023/02/12 21:44:34;;;;;;;1.90;0.80;;;;;;;-1.60;59.78;101930.91;107200;1250;61120;-86
2023/02/12 21:47:01;;;;;;;0.90;0.80;;;;;;;-1.62;59.65;101932.42;106909;1250;61077;-89
2023/02/12 21:49:30;;;;;;;1.00;0.90;;;;;;;-1.65;59.92;101932.58;107039;1250;73759;-87
2023/02/12 21:52:02;;;;;;;3.10;1.10;;;;;;;-1.72;60.19;101938.14;106535;1250;64712;-87
2023/02/12 21:54:30;;;;;;;4.60;1.60;;;;;;;-1.78;60.42;101934.98;106661;1250;73604;-86